createdAt,value
2018-02-11T00:03:40.233Z,74.87
2018-02-11T00:08:45.464Z,78.13
2018-02-11T00:13:51.656Z,89.97
2018-02-11T00:18:58.002Z,90.37
2018-02-11T00:29:36.303Z,91.43
2018-02-11T00:34:43.551Z,76.47
2018-02-11T00:39:48.036Z,73.73
2018-02-11T00:44:53.975Z,77.20
2018-02-11T00:49:58.582Z,62.93
2018-02-11T00:55:02.624Z,89.93
2018-02-11T01:00:10.672Z,85.07
2018-02-11T01:05:24.925Z,75.00
2018-02-11T01:10:35.205Z,69.13
2018-02-11T01:15:42.869Z,91.53
2018-02-11T01:20:45.446Z,74.90
2018-02-11T01:25:55.625Z,68.57
2018-02-11T01:31:07.227Z,62.93
2018-02-11T01:36:17.621Z,62.27
2018-02-11T01:41:23.507Z,69.73
2018-02-11T01:52:12.849Z,93.17
2018-02-11T01:57:21.530Z,61.53
2018-02-11T02:02:25.287Z,63.27
2018-02-11T02:07:39.870Z,65.27
2018-02-11T02:12:51.004Z,55.87
2018-02-11T02:17:55.193Z,70.50
2018-02-11T02:23:00.324Z,59.43
2018-02-11T02:28:05.967Z,58.03
2018-02-11T02:38:23.478Z,66.43
2018-02-11T02:43:30.430Z,62.70
2018-02-11T02:48:38.054Z,59.13
2018-02-11T02:59:05.385Z,55.67
2018-02-11T03:04:12.612Z,57.37
2018-02-11T03:09:20.343Z,65.93
2018-02-11T03:14:25.863Z,61.37
2018-02-11T03:19:31.087Z,70.10
2018-02-11T03:24:42.934Z,69.73
2018-02-11T03:29:51.119Z,52.77
2018-02-11T03:34:58.821Z,77.57
2018-02-11T03:40:04.971Z,65.10
2018-02-11T03:45:09.505Z,60.67
2018-02-11T03:50:19.183Z,61.27
2018-02-11T03:55:25.073Z,60.90
2018-02-11T04:00:45.629Z,55.20
2018-02-11T04:05:53.201Z,56.97
2018-02-11T04:10:59.752Z,75.93
2018-02-11T04:16:08.309Z,62.73
2018-02-11T04:21:14.427Z,66.73
2018-02-11T04:26:22.824Z,66.60
2018-02-11T04:31:30.640Z,66.20
2018-02-11T04:36:36.474Z,58.43
2018-02-11T04:41:41.017Z,56.53
2018-02-11T04:46:49.700Z,63.40
2018-02-11T04:57:06.627Z,41.10
2018-02-11T05:02:10.799Z,53.87
2018-02-11T05:07:17.059Z,74.40
2018-02-11T05:12:22.329Z,46.33
2018-02-11T05:17:25.846Z,53.87
2018-02-11T05:22:29.879Z,53.20
2018-02-11T05:27:33.871Z,53.23
2018-02-11T05:32:38.769Z,43.87
2018-02-11T05:37:46.300Z,44.77
2018-02-11T05:42:51.884Z,50.67
2018-02-11T05:47:55.244Z,45.70
2018-02-11T05:53:03.765Z,42.80
2018-02-11T05:58:18.318Z,44.63
2018-02-11T06:03:25.209Z,53.33
2018-02-11T06:08:29.762Z,36.20
2018-02-11T06:13:36.550Z,43.10
2018-02-11T06:18:50.407Z,31.50
2018-02-11T06:23:54.746Z,33.03
2018-02-11T06:29:00.056Z,34.77
2018-02-11T06:34:09.687Z,35.33
2018-02-11T06:39:17.183Z,32.83
2018-02-11T06:44:20.858Z,37.27
2018-02-11T06:49:24.053Z,27.10
2018-02-11T06:54:30.546Z,26.73
2018-02-11T06:59:37.253Z,27.20
2018-02-11T07:04:51.747Z,33.07
2018-02-11T07:09:56.664Z,32.10
2018-02-11T07:15:04.502Z,32.63
2018-02-11T07:20:11.363Z,28.80
2018-02-11T07:25:16.245Z,27.07
2018-02-11T07:30:26.227Z,30.10
2018-02-11T07:35:30.422Z,24.20
2018-02-11T07:40:42.584Z,28.17
2018-02-11T07:45:48.021Z,27.13
2018-02-11T07:50:57.912Z,23.53
2018-02-11T07:56:03.684Z,18.50
2018-02-11T08:01:13.732Z,22.80
2018-02-11T08:06:20.855Z,24.70
2018-02-11T08:11:27.070Z,21.90
2018-02-11T08:16:33.886Z,23.70
2018-02-11T08:26:50.660Z,21.73
2018-02-11T08:31:59.797Z,23.17
2018-02-11T08:47:33.149Z,14.83
2018-02-11T08:52:41.398Z,17.80
2018-02-11T08:57:53.984Z,17.80
2018-02-11T09:03:01.437Z,19.03
2018-02-11T09:08:10.503Z,13.70
2018-02-11T09:18:24.530Z,11.90
2018-02-11T09:23:30.127Z,18.47
2018-02-11T09:28:49.799Z,13.60
2018-02-11T09:34:14.673Z,21.40
2018-02-11T09:44:38.196Z,13.30
2018-02-11T09:49:45.692Z,16.13
2018-02-11T10:06:27.179Z,12.00
2018-02-11T10:11:38.786Z,15.80
2018-02-11T10:22:31.639Z,14.50
2018-02-11T10:40:11.421Z,14.70
2018-02-11T10:45:15.054Z,15.87
2018-02-11T10:50:35.252Z,18.20
2018-02-11T10:55:49.176Z,15.07
2018-02-11T11:00:57.110Z,13.80
2018-02-11T11:06:13.261Z,11.90
2018-02-11T11:12:02.261Z,13.77
2018-02-11T11:17:14.044Z,22.43
2018-02-11T11:46:17.547Z,13.50
2018-02-11T12:03:55.000Z,18.00
2018-02-11T12:09:22.570Z,17.60
2018-02-11T12:20:25.064Z,10.63
2018-02-11T12:25:42.637Z,18.83
2018-02-11T12:36:49.120Z,18.90
2018-02-11T13:14:21.125Z,13.83
2018-02-11T13:24:54.771Z,30.73
2018-02-11T13:30:04.304Z,19.93
2018-02-11T13:35:21.598Z,20.43
2018-02-11T13:40:41.661Z,16.67
2018-02-11T13:51:13.321Z,18.33
2018-02-11T14:01:36.663Z,19.60
2018-02-11T14:12:22.566Z,17.07
2018-02-11T14:17:31.752Z,17.77
2018-02-11T14:22:38.464Z,16.77
2018-02-11T14:27:51.722Z,17.10
2018-02-11T14:33:05.064Z,23.83
2018-02-11T14:38:31.509Z,20.43
2018-02-11T14:49:04.752Z,20.20
2018-02-11T15:18:37.021Z,24.17
2018-02-11T15:35:47.692Z,24.90
2018-02-11T15:46:28.325Z,26.60
2018-02-11T15:51:42.046Z,31.70
2018-02-11T15:57:27.242Z,26.23
2018-02-11T16:08:22.391Z,37.27
2018-02-11T16:19:08.919Z,30.07
2018-02-11T16:25:16.579Z,35.10
2018-02-11T16:35:56.942Z,29.27
2018-02-11T16:41:09.359Z,28.37
2018-02-11T16:46:17.436Z,25.67
2018-02-11T16:51:30.804Z,29.90
2018-02-11T17:02:00.995Z,27.00
2018-02-11T17:07:30.944Z,22.83
2018-02-11T17:51:09.872Z,39.23
2018-02-11T17:56:22.540Z,28.90
2018-02-11T18:01:32.702Z,33.43
2018-02-11T18:06:42.186Z,35.20
2018-02-11T18:11:51.001Z,30.13
2018-02-11T18:17:06.525Z,39.17
2018-02-11T18:22:09.130Z,34.30
2018-02-11T18:27:28.514Z,39.03
2018-02-11T18:46:19.479Z,41.70
2018-02-11T18:51:38.421Z,39.67
2018-02-11T19:02:14.249Z,39.77
2018-02-11T19:07:29.922Z,46.63
2018-02-11T19:22:10.548Z,52.23
2018-02-11T19:27:22.429Z,53.43
2018-02-11T19:32:41.319Z,38.37
2018-02-11T19:37:55.985Z,34.93
2018-02-11T19:43:01.721Z,41.10
2018-02-11T19:48:08.512Z,40.50
2018-02-11T19:58:38.560Z,38.70
2018-02-11T20:03:52.478Z,41.33
2018-02-11T20:30:08.443Z,61.37
2018-02-11T20:46:16.780Z,35.53
2018-02-11T20:51:29.705Z,28.87
2018-02-11T20:56:42.047Z,38.30
2018-02-11T21:07:43.738Z,40.00
2018-02-11T21:13:02.846Z,29.47
2018-02-11T21:18:15.205Z,21.23
2018-02-11T21:23:32.470Z,27.30
2018-02-11T21:28:38.965Z,31.57
2018-02-11T21:33:55.676Z,24.03
2018-02-11T21:39:10.962Z,24.60
2018-02-11T21:44:21.128Z,26.80
2018-02-11T21:49:26.147Z,24.67
2018-02-11T21:54:39.414Z,21.13
2018-02-11T21:59:47.085Z,18.77
2018-02-11T22:04:57.229Z,18.40
2018-02-11T22:10:05.737Z,20.00
2018-02-11T22:20:55.187Z,20.97
2018-02-11T22:26:20.601Z,20.87
2018-02-11T22:31:37.678Z,23.50
2018-02-11T22:36:45.003Z,18.33
2018-02-11T22:47:50.564Z,21.07
2018-02-11T22:54:04.908Z,24.70
2018-02-11T22:59:23.509Z,21.60
2018-02-11T23:05:09.150Z,23.57
2018-02-11T23:10:30.361Z,17.63
2018-02-11T23:32:14.781Z,24.30
2018-02-11T23:37:34.894Z,13.97
2018-02-11T23:42:44.895Z,15.23
2018-02-11T23:47:53.280Z,12.63
2018-02-11T23:53:12.506Z,16.20
